createdAt,value
2018-03-26T00:00:04.101Z,2.20
2018-03-26T00:02:31.684Z,2.20
2018-03-26T00:04:59.230Z,2.10
2018-03-26T00:07:26.790Z,2.10
2018-03-26T00:09:55.204Z,2.10
2018-03-26T00:12:22.780Z,2.10
2018-03-26T00:14:50.426Z,2.10
2018-03-26T00:17:18.086Z,2.10
2018-03-26T00:19:45.736Z,2.10
2018-03-26T00:22:13.326Z,2.00
2018-03-26T00:24:40.926Z,2.00
2018-03-26T00:27:08.573Z,2.00
2018-03-26T00:29:36.114Z,2.00
2018-03-26T00:32:04.452Z,1.90
2018-03-26T00:34:32.050Z,1.90
2018-03-26T00:36:59.602Z,1.90
2018-03-26T00:39:27.170Z,1.90
2018-03-26T00:41:54.720Z,1.80
2018-03-26T00:44:22.318Z,1.80
2018-03-26T00:46:49.884Z,1.80
2018-03-26T00:49:17.504Z,1.70
2018-03-26T00:51:45.052Z,1.70
2018-03-26T00:54:12.858Z,1.60
2018-03-26T00:56:40.446Z,1.60
2018-03-26T00:59:08.035Z,1.60
2018-03-26T01:01:35.642Z,1.60
2018-03-26T01:04:03.258Z,1.60
2018-03-26T01:06:31.604Z,1.70
2018-03-26T01:08:59.162Z,1.70
2018-03-26T01:11:26.720Z,1.70
2018-03-26T01:13:54.304Z,1.80
2018-03-26T01:16:21.878Z,1.70
2018-03-26T01:18:50.178Z,1.70
2018-03-26T01:21:17.764Z,1.70
2018-03-26T01:23:45.314Z,1.70
2018-03-26T01:26:13.127Z,1.70
2018-03-26T01:28:42.185Z,1.60
2018-03-26T01:31:09.760Z,1.60
2018-03-26T01:33:37.330Z,1.60
2018-03-26T01:36:04.890Z,1.50
2018-03-26T01:38:32.500Z,1.50
2018-03-26T01:41:00.048Z,1.50
2018-03-26T01:43:27.756Z,1.50
2018-03-26T01:45:56.110Z,1.50
2018-03-26T01:48:25.314Z,1.40
2018-03-26T01:50:52.864Z,1.40
2018-03-26T01:53:20.428Z,1.40
2018-03-26T01:55:47.988Z,1.40
2018-03-26T01:58:15.610Z,1.30
2018-03-26T02:00:43.203Z,1.30
2018-03-26T02:03:10.814Z,1.30
2018-03-26T02:05:39.154Z,1.30
2018-03-26T02:08:06.742Z,1.30
2018-03-26T02:10:34.336Z,1.30
2018-03-26T02:13:01.930Z,1.30
2018-03-26T02:15:29.503Z,1.30
2018-03-26T02:17:57.108Z,1.30
2018-03-26T02:20:25.471Z,1.40
2018-03-26T02:22:53.030Z,1.40
2018-03-26T02:25:20.610Z,1.50
2018-03-26T02:27:48.911Z,1.60
2018-03-26T02:30:16.483Z,1.60
2018-03-26T02:32:44.085Z,1.70
2018-03-26T02:35:12.433Z,1.80
2018-03-26T02:37:40.030Z,1.80
2018-03-26T02:40:07.590Z,1.80
2018-03-26T02:42:35.168Z,1.90
2018-03-26T02:45:02.761Z,1.90
2018-03-26T02:47:31.084Z,2.00
2018-03-26T02:49:58.636Z,1.90
2018-03-26T02:52:27.090Z,2.00
2018-03-26T02:54:54.832Z,2.00
2018-03-26T02:57:22.430Z,2.00
2018-03-26T02:59:50.298Z,2.00
2018-03-26T03:02:17.918Z,2.00
2018-03-26T03:04:45.481Z,2.00
2018-03-26T03:07:13.059Z,2.00
2018-03-26T03:09:41.391Z,2.00
2018-03-26T03:12:08.958Z,2.00
2018-03-26T03:14:36.511Z,2.00
2018-03-26T03:17:04.120Z,2.10
2018-03-26T03:19:31.699Z,2.10
2018-03-26T03:21:59.290Z,2.10
2018-03-26T03:24:26.863Z,2.10
2018-03-26T03:26:54.430Z,2.10
2018-03-26T03:29:21.980Z,2.10
2018-03-26T03:31:49.599Z,2.10
2018-03-26T03:34:17.249Z,2.10
2018-03-26T03:36:44.817Z,2.10
2018-03-26T03:39:12.383Z,2.10
2018-03-26T03:41:40.063Z,2.10
2018-03-26T03:44:07.725Z,2.10
2018-03-26T03:46:35.292Z,2.10
2018-03-26T03:49:02.859Z,2.10
2018-03-26T03:51:30.422Z,2.10
2018-03-26T03:53:58.837Z,2.10
2018-03-26T03:56:26.435Z,2.10
2018-03-26T03:58:54.070Z,2.10
2018-03-26T04:01:21.669Z,2.10
2018-03-26T04:03:50.011Z,2.10
2018-03-26T04:06:17.570Z,2.10
2018-03-26T04:08:46.969Z,2.10
2018-03-26T04:11:14.603Z,2.10
2018-03-26T04:13:42.181Z,2.10
2018-03-26T04:16:09.739Z,2.20
2018-03-26T04:18:38.357Z,2.20
2018-03-26T04:21:05.981Z,2.20
2018-03-26T04:23:34.320Z,2.30
2018-03-26T04:26:01.901Z,2.30
2018-03-26T04:28:29.477Z,2.30
2018-03-26T04:30:57.054Z,2.30
2018-03-26T04:33:25.391Z,2.40
2018-03-26T04:35:53.003Z,2.40
2018-03-26T04:38:21.898Z,2.40
2018-03-26T04:40:49.481Z,2.40
2018-03-26T04:43:17.057Z,2.50
2018-03-26T04:45:44.621Z,2.50
2018-03-26T04:48:12.968Z,2.50
2018-03-26T04:50:40.552Z,2.50
2018-03-26T04:53:08.143Z,2.60
2018-03-26T04:55:36.486Z,2.60
2018-03-26T04:58:04.958Z,2.60
2018-03-26T05:00:32.561Z,2.60
2018-03-26T05:03:00.173Z,2.70
2018-03-26T05:05:28.504Z,2.70
2018-03-26T05:07:56.116Z,2.70
2018-03-26T05:10:24.422Z,2.70
2018-03-26T05:12:52.078Z,2.70
2018-03-26T05:15:19.675Z,2.70
2018-03-26T05:17:47.248Z,2.70
2018-03-26T05:20:14.868Z,2.70
2018-03-26T05:22:42.552Z,2.80
2018-03-26T05:25:10.594Z,2.80
2018-03-26T05:27:38.254Z,2.80
2018-03-26T05:30:05.850Z,2.80
2018-03-26T05:32:33.412Z,2.80
2018-03-26T05:35:01.002Z,2.80
2018-03-26T05:37:29.350Z,2.80
2018-03-26T05:39:57.002Z,2.80
2018-03-26T05:42:25.384Z,2.20
2018-03-26T05:44:53.734Z,2.80
2018-03-26T05:47:21.372Z,2.80
2018-03-26T05:49:48.946Z,2.80
2018-03-26T05:52:16.569Z,2.80
2018-03-26T05:54:44.877Z,2.80
2018-03-26T05:57:12.460Z,2.80
2018-03-26T05:59:40.819Z,2.80
2018-03-26T06:02:08.462Z,2.80
2018-03-26T06:04:35.986Z,2.50
2018-03-26T06:07:03.600Z,2.80
2018-03-26T06:09:31.174Z,2.80
2018-03-26T06:11:59.559Z,2.90
2018-03-26T06:14:27.133Z,2.90
2018-03-26T06:17:06.639Z,2.90
2018-03-26T06:19:34.229Z,3.00
2018-03-26T06:22:01.849Z,3.00
2018-03-26T06:24:29.478Z,3.10
2018-03-26T06:26:57.035Z,3.10
2018-03-26T06:29:24.618Z,3.20
2018-03-26T06:31:52.171Z,3.20
2018-03-26T06:34:19.793Z,3.20
2018-03-26T06:39:54.303Z,3.30
2018-03-26T06:42:21.867Z,3.40
2018-03-26T06:44:49.441Z,3.40
2018-03-26T06:47:17.020Z,3.40
2018-03-26T06:49:44.603Z,3.40
2018-03-26T06:52:12.202Z,3.40
2018-03-26T06:54:39.814Z,3.40
2018-03-26T06:57:07.502Z,3.40
2018-03-26T06:59:35.061Z,3.40
2018-03-26T07:02:02.723Z,3.50
2018-03-26T07:04:30.388Z,3.50
2018-03-26T07:06:58.892Z,3.60
2018-03-26T07:09:26.508Z,3.60
2018-03-26T07:11:54.450Z,3.60
2018-03-26T07:14:23.032Z,3.70
2018-03-26T07:16:50.719Z,3.70
2018-03-26T07:19:18.345Z,3.80
2018-03-26T07:21:45.907Z,3.80
2018-03-26T07:24:15.072Z,3.80
2018-03-26T07:26:42.692Z,3.80
2018-03-26T07:29:11.045Z,3.90
2018-03-26T07:31:38.637Z,3.90
2018-03-26T07:34:07.017Z,3.90
2018-03-26T07:36:35.429Z,3.90
2018-03-26T07:39:03.033Z,3.90
2018-03-26T07:41:30.611Z,3.90
2018-03-26T07:43:59.067Z,4.00
2018-03-26T07:46:26.893Z,3.90
2018-03-26T07:48:55.229Z,4.10
2018-03-26T07:51:22.933Z,4.10
2018-03-26T07:53:50.587Z,4.20
2018-03-26T07:56:18.233Z,4.20
2018-03-26T07:58:45.843Z,4.30
2018-03-26T08:01:14.217Z,4.30
2018-03-26T08:03:42.699Z,4.40
2018-03-26T08:06:10.282Z,4.40
2018-03-26T08:08:37.946Z,4.40
2018-03-26T08:11:06.467Z,4.50
2018-03-26T08:13:34.175Z,4.50
2018-03-26T08:16:01.938Z,4.50
2018-03-26T08:18:30.353Z,4.60
2018-03-26T08:20:57.954Z,4.60
2018-03-26T08:23:25.733Z,4.70
2018-03-26T08:25:54.386Z,4.80
2018-03-26T08:28:22.748Z,4.80
2018-03-26T08:30:50.376Z,4.80
2018-03-26T08:33:17.931Z,4.80
2018-03-26T08:35:45.520Z,4.90
2018-03-26T08:38:13.193Z,4.90
2018-03-26T08:40:41.533Z,5.00
2018-03-26T08:43:09.117Z,5.00
2018-03-26T08:45:36.684Z,5.00
2018-03-26T08:48:04.245Z,5.10
2018-03-26T08:50:31.816Z,5.10
2018-03-26T08:53:00.227Z,5.20
2018-03-26T08:55:27.841Z,5.10
2018-03-26T08:57:56.190Z,5.30
2018-03-26T09:00:23.745Z,5.30
2018-03-26T09:02:51.310Z,5.30
2018-03-26T09:05:18.893Z,5.40
2018-03-26T09:07:46.450Z,5.40
2018-03-26T09:10:14.047Z,5.50
2018-03-26T09:12:41.651Z,5.50
2018-03-26T09:15:09.996Z,5.60
2018-03-26T09:17:37.550Z,5.60
2018-03-26T09:20:05.888Z,5.70
2018-03-26T09:22:33.444Z,5.70
2018-03-26T09:25:01.023Z,5.70
2018-03-26T09:27:28.617Z,5.80
2018-03-26T09:29:56.293Z,5.80
2018-03-26T09:32:23.840Z,5.90
2018-03-26T09:34:51.480Z,5.90
2018-03-26T09:37:19.036Z,5.90
2018-03-26T09:39:46.604Z,6.00
2018-03-26T09:42:14.204Z,6.00
2018-03-26T09:44:41.782Z,6.00
2018-03-26T09:47:09.559Z,6.00
2018-03-26T09:49:37.143Z,6.00
2018-03-26T09:52:05.489Z,6.10
2018-03-26T09:54:33.156Z,6.10
2018-03-26T09:57:00.717Z,6.10
2018-03-26T09:59:29.132Z,6.20
2018-03-26T10:01:57.471Z,6.10
2018-03-26T10:04:25.797Z,6.20
2018-03-26T10:06:53.516Z,6.20
2018-03-26T10:09:21.326Z,6.20
2018-03-26T10:11:48.972Z,6.30
2018-03-26T10:14:16.558Z,6.30
2018-03-26T10:16:44.125Z,6.30
2018-03-26T10:19:11.714Z,6.30
2018-03-26T10:21:39.326Z,6.30
2018-03-26T10:24:07.135Z,6.40
2018-03-26T10:26:34.723Z,6.50
2018-03-26T10:29:02.281Z,6.50
2018-03-26T10:31:29.963Z,6.60
2018-03-26T10:33:58.538Z,6.70
2018-03-26T10:36:26.083Z,6.70
2018-03-26T10:38:54.414Z,6.90
2018-03-26T10:41:21.988Z,6.90
2018-03-26T10:43:49.606Z,6.90
2018-03-26T10:46:17.213Z,7.00
2018-03-26T10:48:44.838Z,7.00
2018-03-26T10:51:13.168Z,7.10
2018-03-26T10:53:40.812Z,7.10
2018-03-26T10:56:08.364Z,7.20
2018-03-26T10:58:35.923Z,7.30
2018-03-26T11:01:03.475Z,7.40
2018-03-26T11:03:31.057Z,7.40
2018-03-26T11:05:58.743Z,7.60
2018-03-26T11:08:26.286Z,7.70
2018-03-26T11:10:53.851Z,7.90
2018-03-26T11:13:21.591Z,8.00
2018-03-26T11:15:49.185Z,8.10
2018-03-26T11:18:16.827Z,8.30
2018-03-26T11:20:44.412Z,8.40
2018-03-26T11:23:11.981Z,8.50
2018-03-26T11:25:39.544Z,8.60
2018-03-26T11:28:07.923Z,8.60
2018-03-26T11:30:36.323Z,8.50
2018-03-26T11:33:03.880Z,8.50
2018-03-26T11:35:31.465Z,8.40
2018-03-26T11:37:59.095Z,8.30
2018-03-26T11:40:26.668Z,8.20
2018-03-26T11:42:54.227Z,8.10
2018-03-26T11:45:21.764Z,8.00
2018-03-26T11:47:49.481Z,8.00
2018-03-26T11:50:17.142Z,8.00
2018-03-26T11:52:44.700Z,8.00
2018-03-26T11:55:12.244Z,8.10
2018-03-26T11:57:39.822Z,8.10
2018-03-26T12:00:07.373Z,8.10
2018-03-26T12:02:34.946Z,8.10
2018-03-26T12:05:02.544Z,8.20
2018-03-26T12:07:30.105Z,8.30
2018-03-26T12:09:57.667Z,8.40
2018-03-26T12:12:25.255Z,8.50
2018-03-26T12:14:52.893Z,8.60
2018-03-26T12:17:20.490Z,8.60
2018-03-26T12:20:00.039Z,8.60
2018-03-26T12:22:27.600Z,8.60
2018-03-26T12:25:17.211Z,8.50
2018-03-26T12:27:57.417Z,8.50
2018-03-26T12:30:28.317Z,8.40
2018-03-26T12:32:56.009Z,8.40
2018-03-26T12:35:36.248Z,8.30
2018-03-26T12:38:03.826Z,8.30
2018-03-26T12:40:43.120Z,8.30
2018-03-26T12:43:10.825Z,8.30
2018-03-26T12:45:50.299Z,8.30
2018-03-26T12:48:17.901Z,8.40
2018-03-26T12:53:51.658Z,8.80
2018-03-26T12:56:19.280Z,8.80
2018-03-26T12:58:48.416Z,9.00
2018-03-26T13:01:27.854Z,9.00
2018-03-26T13:03:55.516Z,9.10
2018-03-26T13:06:23.898Z,9.10
2018-03-26T13:08:51.604Z,9.10
2018-03-26T13:11:19.168Z,9.20
2018-03-26T13:13:46.855Z,9.20
2018-03-26T13:16:14.798Z,9.40
2018-03-26T13:18:42.391Z,9.50
2018-03-26T13:21:10.911Z,9.70
2018-03-26T13:23:38.498Z,9.70
2018-03-26T13:26:06.088Z,9.90
2018-03-26T13:28:34.461Z,10.20
2018-03-26T13:31:02.106Z,10.20
2018-03-26T13:33:29.756Z,10.40
2018-03-26T13:35:57.360Z,10.50
2018-03-26T13:38:25.355Z,10.50
2018-03-26T13:40:53.719Z,10.60
2018-03-26T13:43:21.472Z,10.60
2018-03-26T13:45:49.144Z,10.70
2018-03-26T13:48:22.836Z,10.70
2018-03-26T13:50:50.411Z,10.90
2018-03-26T13:53:18.069Z,11.00
2018-03-26T13:55:45.732Z,11.00
2018-03-26T13:58:13.464Z,11.00
2018-03-26T14:00:41.332Z,11.10
2018-03-26T14:03:08.914Z,11.10
2018-03-26T14:05:36.494Z,11.10
2018-03-26T14:08:04.070Z,11.10
2018-03-26T14:10:44.436Z,10.90
2018-03-26T14:13:24.820Z,10.70
2018-03-26T14:16:05.689Z,10.50
2018-03-26T14:18:34.031Z,10.30
2018-03-26T14:21:01.653Z,10.20
2018-03-26T14:23:29.222Z,10.10
2018-03-26T14:25:57.472Z,9.90
2018-03-26T14:28:25.193Z,9.80
2018-03-26T14:30:52.758Z,9.70
2018-03-26T14:33:20.408Z,9.60
2018-03-26T14:35:48.006Z,9.40
2018-03-26T14:38:15.775Z,9.30
2018-03-26T14:40:43.431Z,9.20
2018-03-26T14:43:11.109Z,9.00
2018-03-26T14:45:38.845Z,8.80
2018-03-26T14:48:07.178Z,8.50
2018-03-26T14:50:34.741Z,8.40
2018-03-26T14:53:02.379Z,8.30
2018-03-26T14:55:29.973Z,8.20
2018-03-26T14:57:57.537Z,8.00
2018-03-26T15:00:25.163Z,7.90
2018-03-26T15:02:52.876Z,7.70
2018-03-26T15:05:21.218Z,7.40
2018-03-26T15:07:48.838Z,7.40
2018-03-26T15:10:16.421Z,7.30
2018-03-26T15:12:43.972Z,7.20
2018-03-26T15:15:11.538Z,7.10
2018-03-26T15:17:39.127Z,7.00
2018-03-26T15:20:06.695Z,7.00
2018-03-26T15:22:34.294Z,6.90
2018-03-26T15:25:02.673Z,6.90
2018-03-26T15:27:30.287Z,6.90
2018-03-26T15:29:57.827Z,6.90
2018-03-26T15:32:25.466Z,7.00
2018-03-26T15:34:53.047Z,7.00
2018-03-26T15:37:20.633Z,7.00
2018-03-26T15:39:49.045Z,7.10
2018-03-26T15:42:16.610Z,7.10
2018-03-26T15:44:44.179Z,7.20
2018-03-26T15:47:11.761Z,7.20
2018-03-26T15:49:39.333Z,7.20
2018-03-26T15:52:06.948Z,7.20
2018-03-26T15:54:34.533Z,7.20
2018-03-26T15:57:02.853Z,7.20
2018-03-26T15:59:30.499Z,7.10
2018-03-26T16:01:57.651Z,7.10
2018-03-26T16:04:25.280Z,7.10
2018-03-26T16:06:53.711Z,7.10
2018-03-26T16:09:21.303Z,7.10
2018-03-26T16:11:49.687Z,7.10
2018-03-26T16:14:17.413Z,7.10
2018-03-26T16:16:45.005Z,7.10
2018-03-26T16:19:12.616Z,7.10
2018-03-26T16:21:40.213Z,7.00
2018-03-26T16:24:07.809Z,7.10
2018-03-26T16:26:35.408Z,7.00
2018-03-26T16:29:03.104Z,7.00
2018-03-26T16:31:30.711Z,7.00
2018-03-26T16:33:58.374Z,7.00
2018-03-26T16:36:25.961Z,7.00
2018-03-26T16:38:54.286Z,7.00
2018-03-26T16:41:33.655Z,7.00
2018-03-26T16:44:01.240Z,7.00
2018-03-26T16:46:28.798Z,7.00
2018-03-26T16:48:56.353Z,7.00
2018-03-26T16:51:23.948Z,7.00
2018-03-26T16:53:52.368Z,7.00
2018-03-26T16:56:20.874Z,7.00
2018-03-26T16:58:48.641Z,7.00
2018-03-26T17:01:16.301Z,7.00
2018-03-26T17:03:43.947Z,7.00
2018-03-26T17:06:12.302Z,7.00
2018-03-26T17:08:40.738Z,6.90
2018-03-26T17:11:08.334Z,6.90
2018-03-26T17:13:36.152Z,6.90
2018-03-26T17:16:04.328Z,6.90
2018-03-26T17:18:31.978Z,6.90
2018-03-26T17:20:59.560Z,6.90
2018-03-26T17:23:27.149Z,6.90
2018-03-26T17:25:54.747Z,6.80
2018-03-26T17:28:23.084Z,6.80
2018-03-26T17:30:50.734Z,6.80
2018-03-26T17:33:18.307Z,6.80
2018-03-26T17:35:45.885Z,6.80
2018-03-26T17:38:13.488Z,6.80
2018-03-26T17:40:41.216Z,6.80
2018-03-26T17:43:08.785Z,6.70
2018-03-26T17:45:36.438Z,6.70
2018-03-26T17:48:04.040Z,6.70
2018-03-26T17:50:31.649Z,6.70
2018-03-26T17:52:59.239Z,6.70
2018-03-26T17:55:26.878Z,6.70
2018-03-26T17:57:55.359Z,6.70
2018-03-26T18:00:22.926Z,6.60
2018-03-26T18:02:50.492Z,6.60
2018-03-26T18:05:18.077Z,6.60
2018-03-26T18:07:46.407Z,6.60
2018-03-26T18:10:14.317Z,6.60
2018-03-26T18:12:42.044Z,6.60
2018-03-26T18:15:09.633Z,6.60
2018-03-26T18:17:37.231Z,6.60
2018-03-26T18:20:04.823Z,6.60
2018-03-26T18:22:32.381Z,6.60
2018-03-26T18:25:00.029Z,6.60
2018-03-26T18:27:28.378Z,6.60
2018-03-26T18:29:57.480Z,6.60
2018-03-26T18:32:25.025Z,6.60
2018-03-26T18:34:52.594Z,6.60
2018-03-26T18:37:20.191Z,6.60
2018-03-26T18:39:47.768Z,6.50
2018-03-26T18:42:15.388Z,6.50
2018-03-26T18:44:42.954Z,6.50
2018-03-26T18:47:11.316Z,6.50
2018-03-26T18:49:39.838Z,6.50
2018-03-26T18:52:07.448Z,6.50
2018-03-26T18:54:35.030Z,6.50
2018-03-26T18:57:02.697Z,6.50
2018-03-26T18:59:30.200Z,6.50
2018-03-26T19:01:57.799Z,6.50
2018-03-26T19:04:26.312Z,6.50
2018-03-26T19:06:54.645Z,6.50
2018-03-26T19:09:22.304Z,6.40
2018-03-26T19:11:49.872Z,6.40
2018-03-26T19:14:17.516Z,6.40
2018-03-26T19:16:45.178Z,6.40
2018-03-26T19:19:13.476Z,6.40
2018-03-26T19:21:41.036Z,6.40
2018-03-26T19:24:08.635Z,6.40
2018-03-26T19:26:36.296Z,6.40
2018-03-26T19:29:03.874Z,6.40
2018-03-26T19:31:31.507Z,6.40
2018-03-26T19:33:59.899Z,6.40
2018-03-26T19:36:27.445Z,6.40
2018-03-26T19:38:55.022Z,6.40
2018-03-26T19:41:22.599Z,6.40
2018-03-26T19:43:50.222Z,6.40
2018-03-26T19:46:18.682Z,6.40
2018-03-26T19:48:46.223Z,6.40
2018-03-26T19:51:13.795Z,6.40
2018-03-26T19:53:41.371Z,6.40
2018-03-26T19:56:08.980Z,6.40
2018-03-26T19:58:36.524Z,6.40
2018-03-26T20:01:04.087Z,6.40
2018-03-26T20:03:31.651Z,6.30
2018-03-26T20:05:59.441Z,6.40
2018-03-26T20:08:27.800Z,6.30
2018-03-26T20:10:55.432Z,6.30
2018-03-26T20:13:23.044Z,6.30
2018-03-26T20:15:50.802Z,6.30
2018-03-26T20:18:18.394Z,6.30
2018-03-26T20:20:45.973Z,6.30
2018-03-26T20:23:14.311Z,6.30
2018-03-26T20:25:41.893Z,6.30
2018-03-26T20:28:09.478Z,6.30
2018-03-26T20:30:37.056Z,6.30
2018-03-26T20:33:05.380Z,6.30
2018-03-26T20:35:33.057Z,6.30
2018-03-26T20:38:00.596Z,6.30
2018-03-26T20:40:28.257Z,6.30
2018-03-26T20:42:56.039Z,6.30
2018-03-26T20:45:23.681Z,6.30
2018-03-26T20:47:51.294Z,6.20
2018-03-26T20:50:18.858Z,6.20
2018-03-26T20:52:46.420Z,6.20
2018-03-26T20:55:14.162Z,6.20
2018-03-26T20:57:41.729Z,6.20
2018-03-26T21:00:09.297Z,6.20
2018-03-26T21:02:37.779Z,6.20
2018-03-26T21:05:06.127Z,6.20
2018-03-26T21:07:33.712Z,6.20
2018-03-26T21:10:02.048Z,6.20
2018-03-26T21:12:29.640Z,6.20
2018-03-26T21:14:57.246Z,6.10
2018-03-26T21:17:25.585Z,6.10
2018-03-26T21:19:53.150Z,6.10
2018-03-26T21:22:20.710Z,6.10
2018-03-26T21:24:48.444Z,6.00
2018-03-26T21:27:16.780Z,5.80
2018-03-26T21:29:44.371Z,5.80
2018-03-26T21:32:11.961Z,5.70
2018-03-26T21:34:40.308Z,5.70
2018-03-26T21:37:07.873Z,5.70
2018-03-26T21:39:35.688Z,5.60
2018-03-26T21:42:03.251Z,5.60
2018-03-26T21:44:30.809Z,5.70
2018-03-26T21:46:58.377Z,5.70
2018-03-26T21:49:26.808Z,5.80
2018-03-26T21:51:54.369Z,5.80
2018-03-26T21:54:21.924Z,5.80
2018-03-26T21:56:49.601Z,5.80
2018-03-26T21:59:17.185Z,5.90
2018-03-26T22:01:44.893Z,5.90
2018-03-26T22:04:13.224Z,5.90
2018-03-26T22:06:40.902Z,5.80
2018-03-26T22:09:08.497Z,5.90
2018-03-26T22:11:36.078Z,5.80
2018-03-26T22:14:04.606Z,5.80
2018-03-26T22:16:32.186Z,5.90
2018-03-26T22:18:59.770Z,5.80
2018-03-26T22:21:27.450Z,5.90
2018-03-26T22:23:56.540Z,5.80
2018-03-26T22:26:24.205Z,5.80
2018-03-26T22:28:51.902Z,5.90
2018-03-26T22:31:19.522Z,6.40
2018-03-26T22:33:47.106Z,5.80
2018-03-26T22:36:14.854Z,5.90
2018-03-26T22:38:42.444Z,5.90
2018-03-26T22:41:10.062Z,5.90
2018-03-26T22:43:37.692Z,5.90
2018-03-26T22:46:05.359Z,5.90
2018-03-26T22:48:33.031Z,5.90
2018-03-26T22:51:00.636Z,5.90
2018-03-26T22:53:28.323Z,5.90
2018-03-26T22:55:55.916Z,5.90
2018-03-26T22:58:23.588Z,5.90
2018-03-26T23:00:51.156Z,5.90
2018-03-26T23:03:18.791Z,5.90
2018-03-26T23:05:46.400Z,5.90
2018-03-26T23:08:14.018Z,5.90
2018-03-26T23:10:41.622Z,5.90
2018-03-26T23:13:09.214Z,5.90
2018-03-26T23:15:36.815Z,5.90
2018-03-26T23:18:04.399Z,5.90
2018-03-26T23:20:31.986Z,5.80
2018-03-26T23:22:59.576Z,5.80
2018-03-26T23:25:27.969Z,5.80
2018-03-26T23:27:55.570Z,5.80
2018-03-26T23:30:23.191Z,5.80
2018-03-26T23:32:50.856Z,5.80
2018-03-26T23:35:18.460Z,5.80
2018-03-26T23:37:46.816Z,5.70
2018-03-26T23:40:14.580Z,5.70
2018-03-26T23:42:42.193Z,5.70
2018-03-26T23:45:09.807Z,5.70
2018-03-26T23:47:38.216Z,5.50
2018-03-26T23:50:05.827Z,5.50
2018-03-26T23:52:33.435Z,5.40
2018-03-26T23:55:01.023Z,5.40
2018-03-26T23:57:28.611Z,5.30
2018-03-26T23:59:56.179Z,5.30
